Řízení letového provozu České republiky  
Aktualizace dat:  30.05.2020 01:32:20 UTC English version
   METEO Zobrazení stránky:  30.05.2020 01:33:29 UTC  
vysvětlivky
METAR EDDB 300120Z 04007KT CAVOK 09/04 Q1026 NOSIG=
METAR EDDC 300120Z 36005KT CAVOK 08/05 Q1023=
METAR EDDE 300120Z 34004KT CAVOK 10/04 Q1025=
METAR EDDF 300120Z 36009KT CAVOK 13/03 Q1023 NOSIG=
METAR EDDM 300120Z 05002KT CAVOK 06/06 Q1022 NOSIG=
METAR EDDN 300120Z VRB02KT CAVOK 08/03 Q1023=
METAR EDDP 300120Z 03005KT CAVOK 10/05 Q1025 NOSIG=
METAR EDDT 300120Z 03005KT 340V060 CAVOK 10/05 Q1026=
METAR EDQM NIL
METAR EPBY 300130Z 35006KT CAVOK 06/03 Q1023=
METAR EPGD 300130Z 01008KT CAVOK 07/06 Q1024=
METAR EPKK 300130Z 29004KT 240V310 9999 BKN067 10/03 Q1019=
METAR EPKT 300130Z 33004KT CAVOK 06/02 Q1020=
METAR EPLL 300130Z 32005KT 290V020 CAVOK 08/05 Q1020=
METAR EPPO 300130Z 34005KT CAVOK 06/03 Q1024=
METAR EPRZ 300130Z 26007KT CAVOK 10/05 Q1016=
METAR EPWA 300130Z 32007KT CAVOK 10/05 Q1019 NOSIG=
METAR EPWR 300130Z 33005KT CAVOK 06/02 Q1023=
METAR LHBP 300130Z AUTO 35009KT 9999 -RA FEW053/// SCT062/// OVC074/// 13/08 Q1018=
METAR LHSM 300045Z AUTO 00000KT 9000 NSC 10/07 Q1019=
METAR LKBC 300130Z AUTO 26003KT 9999 FEW062 OVC082 08/05 Q1022=
METAR LKCV 300130Z 33004KT CAVOK 12/06 Q1022 NOSIG RMK BLU BLU=
METAR LKKB 300130Z 31005KT CAVOK 12/04 Q1022 NOSIG RMK BLU=
METAR LKKU NIL
METAR LKKV 300100Z 31002KT CAVOK 10/03 Q1023 RMK REG QNH 1018=
METAR LKLN 300130Z AUTO VRB01KT 9999 BKN088 OVC100 10/05 Q1023=
METAR LKMT 300130Z 17003KT CAVOK 04/02 Q1021 NOSIG RMK REG QNH 1018=
METAR LKNA 300130Z 33006KT CAVOK 09/03 Q1021 RMK BLU=
METAR LKPD 300130Z 03003KT CAVOK 12/05 Q1022 RMK BLU=
METAR LKPJ 300130Z AUTO 36005KT 9999 FEW069 OVC081 10/03 Q1021=
METAR LKPR 300130Z 32005KT CAVOK 10/05 Q1022 NOSIG RMK REG QNH 1018=
METAR LKTB 300130Z 34007KT CAVOK 11/03 Q1021 NOSIG RMK REG QNH 1018=
METAR LKVO NIL
METAR LOWI 300120Z AUTO 27002KT 9999 NCD 07/04 Q1021=
METAR LOWL 300120Z AUTO 31004KT 3800 BR SCT002 09/09 Q1022=
METAR LOWS 300120Z AUTO 23002KT 9999 FEW080 06/06 Q1022=
METAR LOWW 300120Z 32005KT CAVOK 09/07 Q1021 NOSIG=
METAR LZIB 300130Z VRB02KT CAVOK 10/04 Q1020=
METAR LZKZ 300130Z 36008KT CAVOK 12/02 Q1016=
METAR LZMC NIL
METAR LZPP 300100Z AUTO 32007KT 9999 NCD 05/04 Q1020=
METAR LZSL 300100Z 20001KT CAVOK 06/03 Q1018=
METAR LZTT 300130Z 28004KT 260V330 9999 FEW060 03/01 Q1018=
METAR LZZI 300100Z 14003KT CAVOK 05/04 Q1020=